createdAt,value
2019-04-01T00:01:30.234Z,14.37
2019-04-01T00:04:43.939Z,14.00
2019-04-01T00:07:57.398Z,13.13
2019-04-01T00:11:10.966Z,14.03
2019-04-01T00:14:24.777Z,14.60
2019-04-01T00:17:38.251Z,14.83
2019-04-01T00:20:51.728Z,13.50
2019-04-01T00:24:05.288Z,14.93
2019-04-01T00:27:18.767Z,13.37
2019-04-01T00:30:32.752Z,13.33
2019-04-01T00:33:46.218Z,13.23
2019-04-01T00:36:59.701Z,14.50
2019-04-01T00:40:13.274Z,13.60
2019-04-01T00:43:46.700Z,13.63
2019-04-01T00:47:00.398Z,13.37
2019-04-01T00:50:13.888Z,14.07
2019-04-01T00:53:27.344Z,13.27
2019-04-01T00:56:41.202Z,13.47
2019-04-01T00:59:54.958Z,13.83
2019-04-01T01:03:08.685Z,13.23
2019-04-01T01:06:22.275Z,13.83
2019-04-01T01:09:36.047Z,12.77
2019-04-01T01:12:49.887Z,13.43
2019-04-01T01:16:03.348Z,12.90
2019-04-01T01:19:17.247Z,14.13
2019-04-01T01:22:31.115Z,15.37
2019-04-01T01:25:44.699Z,15.53
2019-04-01T01:28:58.180Z,14.93
2019-04-01T01:32:11.780Z,15.77
2019-04-01T01:35:25.269Z,15.90
2019-04-01T01:38:39.016Z,16.70
2019-04-01T01:41:52.499Z,15.77
2019-04-01T01:45:06.192Z,15.37
2019-04-01T01:48:19.968Z,15.83
2019-04-01T01:51:33.475Z,15.97
2019-04-01T01:54:46.969Z,16.53
2019-04-01T01:58:00.835Z,16.10
2019-04-01T02:01:14.321Z,16.43
2019-04-01T02:04:27.889Z,16.90
2019-04-01T02:07:41.632Z,16.37
2019-04-01T02:10:55.616Z,16.47
2019-04-01T02:14:09.368Z,18.20
2019-04-01T02:17:23.434Z,21.23
2019-04-01T02:20:36.904Z,23.10
2019-04-01T02:23:50.499Z,19.93
2019-04-01T02:27:04.461Z,17.03
2019-04-01T02:30:18.215Z,17.70
2019-04-01T02:33:31.706Z,18.67
2019-04-01T02:36:45.201Z,18.07
2019-04-01T02:39:59.028Z,18.07
2019-04-01T02:43:12.619Z,17.87
2019-04-01T02:46:26.199Z,17.80
2019-04-01T02:49:39.699Z,17.67
2019-04-01T02:52:53.308Z,17.33
2019-04-01T02:56:06.775Z,17.10
2019-04-01T02:59:20.269Z,19.27
2019-04-01T03:02:33.750Z,17.63
2019-04-01T03:05:47.258Z,17.83
2019-04-01T03:09:01.553Z,19.40
2019-04-01T03:12:15.029Z,17.97
2019-04-01T03:15:28.625Z,18.90
2019-04-01T03:18:42.100Z,18.67
2019-04-01T03:21:55.809Z,19.10
2019-04-01T03:25:09.589Z,19.60
2019-04-01T03:28:23.445Z,18.33
2019-04-01T03:31:37.026Z,18.67
2019-04-01T03:34:50.597Z,18.70
2019-04-01T03:38:04.193Z,19.07
2019-04-01T03:41:17.766Z,18.90
2019-04-01T03:44:31.343Z,19.47
2019-04-01T03:47:45.185Z,19.23
2019-04-01T03:50:58.684Z,18.23
2019-04-01T03:54:12.176Z,20.07
2019-04-01T03:57:25.650Z,21.10
2019-04-01T04:00:39.224Z,19.77
2019-04-01T04:03:52.801Z,19.97
2019-04-01T04:07:06.570Z,20.60
2019-04-01T04:10:20.167Z,20.37
2019-04-01T04:13:33.777Z,19.90
2019-04-01T04:16:47.518Z,19.27
2019-04-01T04:20:01.107Z,20.53
2019-04-01T04:23:14.568Z,19.10
2019-04-01T04:26:28.094Z,19.50
2019-04-01T04:29:41.559Z,19.63
2019-04-01T04:32:55.413Z,18.47
2019-04-01T04:36:08.888Z,17.73
2019-04-01T04:39:22.879Z,18.97
2019-04-01T04:42:36.353Z,18.40
2019-04-01T04:45:49.960Z,18.77
2019-04-01T04:49:03.504Z,19.47
2019-04-01T04:52:16.970Z,20.93
2019-04-01T04:55:30.447Z,18.17
2019-04-01T04:58:43.915Z,19.20
2019-04-01T05:01:57.521Z,17.30
2019-04-01T05:05:11.299Z,18.60
2019-04-01T05:08:25.059Z,18.73
2019-04-01T05:11:38.588Z,18.53
2019-04-01T05:14:52.437Z,18.47
2019-04-01T05:18:06.352Z,18.27
2019-04-01T05:21:20.544Z,19.43
2019-04-01T05:24:34.833Z,18.37
2019-04-01T05:27:48.712Z,18.17
2019-04-01T05:31:05.675Z,17.00
2019-04-01T05:34:20.950Z,17.20
2019-04-01T05:37:35.120Z,18.97
2019-04-01T05:40:48.800Z,17.77
2019-04-01T05:44:02.643Z,17.73
2019-04-01T05:47:18.359Z,17.50
2019-04-01T05:50:32.075Z,18.20
2019-04-01T05:53:45.770Z,16.70
2019-04-01T05:56:59.672Z,16.30
2019-04-01T06:00:21.001Z,15.70
2019-04-01T06:03:34.683Z,16.23
2019-04-01T06:06:49.098Z,15.03
2019-04-01T06:10:03.305Z,13.90
2019-04-01T06:13:17.163Z,14.50
2019-04-01T06:16:30.999Z,12.90
2019-04-01T06:19:44.980Z,13.10
2019-04-01T06:22:58.753Z,13.70
2019-04-01T06:26:12.344Z,14.30
2019-04-01T06:29:26.347Z,14.07
2019-04-01T06:32:39.920Z,13.50
2019-04-01T06:35:53.713Z,12.53
2019-04-01T06:39:07.529Z,13.37
2019-04-01T06:42:21.421Z,13.53
2019-04-01T06:45:35.261Z,12.00
2019-04-01T06:48:48.840Z,12.00
2019-04-01T06:52:02.918Z,11.77
2019-04-01T06:55:16.856Z,11.97
2019-04-01T06:58:30.655Z,11.33
2019-04-01T07:01:44.367Z,10.53
2019-04-01T07:04:58.113Z,11.87
2019-04-01T07:08:11.935Z,10.30
2019-04-01T07:11:25.601Z,10.43
2019-04-01T07:14:39.880Z,11.10
2019-04-01T07:17:53.861Z,11.73
2019-04-01T07:21:10.143Z,10.33
2019-04-01T07:24:23.720Z,10.83
2019-04-01T07:27:38.103Z,11.90
2019-04-01T07:30:51.793Z,11.27
2019-04-01T07:34:05.655Z,11.27
2019-04-01T07:37:19.244Z,12.00
2019-04-01T07:40:33.535Z,11.60
2019-04-01T07:43:47.512Z,11.13
2019-04-01T07:47:01.634Z,11.97
2019-04-01T07:50:15.285Z,12.53
2019-04-01T07:53:29.099Z,11.60
2019-04-01T07:56:42.578Z,11.60
2019-04-01T07:59:56.969Z,11.90
2019-04-01T08:03:10.976Z,12.40
2019-04-01T08:06:24.851Z,12.53
2019-04-01T08:09:39.024Z,12.50
2019-04-01T08:12:52.603Z,13.00
2019-04-01T08:16:06.280Z,12.47
2019-04-01T08:19:19.981Z,12.60
2019-04-01T08:22:33.659Z,12.67
2019-04-01T08:25:48.115Z,14.00
2019-04-01T08:29:01.895Z,13.70
2019-04-01T08:32:15.590Z,13.33
2019-04-01T08:35:29.503Z,13.23
2019-04-01T08:38:43.203Z,15.27
2019-04-01T08:41:56.804Z,14.27
2019-04-01T08:45:10.671Z,15.07
2019-04-01T08:48:25.035Z,14.87
2019-04-01T08:51:38.951Z,13.50
2019-04-01T08:54:52.545Z,14.20
2019-04-01T08:58:06.411Z,14.60
2019-04-01T09:01:34.161Z,14.73
2019-04-01T09:04:35.377Z,13.73
2019-04-01T09:07:49.456Z,15.07
2019-04-01T09:11:03.133Z,14.80
2019-04-01T09:14:17.223Z,15.93
2019-04-01T09:17:30.736Z,15.37
2019-04-01T09:20:44.311Z,14.40
2019-04-01T09:23:57.923Z,15.40
2019-04-01T09:27:11.703Z,16.87
2019-04-01T09:30:25.434Z,14.50
2019-04-01T09:33:39.333Z,15.60
2019-04-01T09:36:52.921Z,14.97
2019-04-01T09:40:07.026Z,14.70
2019-04-01T09:43:21.065Z,15.20
2019-04-01T09:46:34.739Z,15.23
2019-04-01T09:49:48.220Z,15.63
2019-04-01T09:53:01.806Z,17.20
2019-04-01T09:56:15.270Z,15.70
2019-04-01T09:59:28.752Z,15.83
2019-04-01T10:02:42.660Z,17.00
2019-04-01T10:05:56.496Z,15.93
2019-04-01T10:09:10.198Z,15.80
2019-04-01T10:12:23.895Z,16.67
2019-04-01T10:15:37.389Z,17.13
2019-04-01T10:18:50.979Z,15.80
2019-04-01T10:22:04.900Z,15.87
2019-04-01T10:25:18.488Z,15.83
2019-04-01T10:28:32.491Z,17.27
2019-04-01T10:31:46.476Z,17.40
2019-04-01T10:35:00.407Z,16.97
2019-04-01T10:38:14.284Z,17.33
2019-04-01T10:41:28.008Z,18.40
2019-04-01T10:44:41.847Z,16.60
2019-04-01T10:47:55.354Z,18.40
2019-04-01T10:51:09.095Z,16.37
2019-04-01T10:54:23.017Z,18.17
2019-04-01T10:57:36.825Z,18.80
2019-04-01T11:00:50.728Z,16.97
2019-04-01T11:04:06.200Z,17.53
2019-04-01T11:07:22.985Z,17.87
2019-04-01T11:10:37.726Z,16.93
2019-04-01T11:13:54.380Z,18.03
2019-04-01T11:17:10.561Z,17.20
2019-04-01T11:20:25.984Z,17.80
2019-04-01T11:23:39.666Z,18.73
2019-04-01T11:26:53.481Z,18.20
2019-04-01T11:30:08.482Z,18.43
2019-04-01T11:33:22.086Z,16.57
2019-04-01T11:36:35.764Z,17.27
2019-04-01T11:39:49.307Z,17.90
2019-04-01T11:43:04.922Z,17.03
2019-04-01T11:46:18.346Z,16.57
2019-04-01T11:49:32.087Z,17.20
2019-04-01T11:52:45.822Z,18.37
2019-04-01T11:55:59.535Z,17.50
2019-04-01T11:59:13.028Z,17.07
2019-04-01T12:02:26.609Z,17.87
2019-04-01T12:05:40.502Z,18.37
2019-04-01T12:08:53.998Z,17.47
2019-04-01T12:12:22.332Z,17.73
2019-04-01T12:15:23.094Z,17.90
2019-04-01T12:18:36.697Z,19.07
2019-04-01T12:21:50.300Z,16.67
2019-04-01T12:25:04.804Z,17.07
2019-04-01T12:28:18.900Z,16.77
2019-04-01T12:31:32.623Z,16.47
2019-04-01T12:34:46.809Z,16.30
2019-04-01T12:38:00.764Z,16.03
2019-04-01T12:41:15.113Z,16.40
2019-04-01T12:44:28.916Z,17.17
2019-04-01T12:47:43.402Z,16.67
2019-04-01T12:50:57.975Z,16.80
2019-04-01T12:54:12.063Z,16.37
2019-04-01T12:57:26.016Z,16.10
2019-04-01T13:00:39.526Z,16.47
2019-04-01T13:03:53.014Z,15.37
2019-04-01T13:07:06.618Z,16.00
2019-04-01T13:10:20.565Z,15.47
2019-04-01T13:13:34.096Z,15.77
2019-04-01T13:16:47.974Z,14.67
2019-04-01T13:20:01.667Z,15.83
2019-04-01T13:23:15.193Z,16.50
2019-04-01T13:26:28.732Z,16.30
2019-04-01T13:29:42.458Z,16.20
2019-04-01T13:32:56.125Z,14.90
2019-04-01T13:36:09.936Z,16.00
2019-04-01T13:39:23.925Z,16.33
2019-04-01T13:42:37.604Z,15.67
2019-04-01T13:45:51.270Z,16.10
2019-04-01T13:49:05.051Z,15.50
2019-04-01T13:52:19.139Z,16.73
2019-04-01T13:55:33.046Z,15.70
2019-04-01T13:58:46.880Z,14.33
2019-04-01T14:02:00.696Z,15.57
2019-04-01T14:05:14.639Z,15.87
2019-04-01T14:08:28.621Z,16.30
2019-04-01T14:11:42.669Z,16.20
2019-04-01T14:14:56.415Z,16.20
2019-04-01T14:18:10.020Z,15.60
2019-04-01T14:21:23.753Z,15.90
2019-04-01T14:24:37.525Z,16.33
2019-04-01T14:27:51.147Z,16.00
2019-04-01T14:31:05.234Z,14.50
2019-04-01T14:34:23.216Z,15.33
2019-04-01T14:37:35.147Z,15.00
2019-04-01T14:40:49.049Z,16.23
2019-04-01T14:44:03.000Z,16.97
2019-04-01T14:47:16.586Z,16.17
2019-04-01T14:50:30.457Z,15.97
2019-04-01T14:53:43.946Z,16.30
2019-04-01T14:56:57.555Z,15.57
2019-04-01T15:00:12.544Z,16.83
2019-04-01T15:03:26.029Z,15.67
2019-04-01T15:06:39.514Z,16.20
2019-04-01T15:09:53.102Z,15.57
2019-04-01T15:13:06.745Z,15.43
2019-04-01T15:16:20.342Z,15.70
2019-04-01T15:19:33.940Z,15.73
2019-04-01T15:22:47.456Z,14.10
2019-04-01T15:26:01.226Z,13.57
2019-04-01T15:29:15.254Z,14.77
2019-04-01T15:32:28.992Z,15.40
2019-04-01T15:35:42.726Z,14.87
2019-04-01T15:38:56.526Z,14.97
2019-04-01T15:42:10.299Z,16.13
2019-04-01T15:45:24.347Z,14.57
2019-04-01T15:48:38.070Z,15.80
2019-04-01T15:51:51.605Z,15.47
2019-04-01T15:55:05.351Z,15.30
2019-04-01T15:58:18.844Z,14.73
2019-04-01T16:01:32.464Z,14.97
2019-04-01T16:04:46.511Z,15.13
2019-04-01T16:08:00.275Z,14.53
2019-04-01T16:11:13.912Z,14.20
2019-04-01T16:14:27.808Z,14.10
2019-04-01T16:17:41.520Z,13.97
2019-04-01T16:20:55.543Z,14.63
2019-04-01T16:24:11.274Z,14.77
2019-04-01T16:27:24.907Z,14.17
2019-04-01T16:30:38.538Z,14.70
2019-04-01T16:33:52.560Z,14.60
2019-04-01T16:37:06.247Z,13.23
2019-04-01T16:40:20.234Z,13.17
2019-04-01T16:43:33.979Z,13.63
2019-04-01T16:46:47.718Z,13.67
2019-04-01T16:50:01.674Z,14.07
2019-04-01T16:53:15.415Z,14.10
2019-04-01T16:56:29.189Z,13.27
2019-04-01T16:59:42.819Z,13.70
2019-04-01T17:02:57.021Z,14.13
2019-04-01T17:06:10.816Z,13.30
2019-04-01T17:09:24.335Z,13.63
2019-04-01T17:12:37.944Z,13.87
2019-04-01T17:15:51.539Z,12.77
2019-04-01T17:19:05.178Z,13.23
2019-04-01T17:22:19.209Z,12.67
2019-04-01T17:25:32.977Z,13.50
2019-04-01T17:28:47.020Z,12.67
2019-04-01T17:32:00.624Z,12.33
2019-04-01T17:35:14.529Z,14.37
2019-04-01T17:38:28.276Z,12.00
2019-04-01T17:41:46.114Z,12.00
2019-04-01T17:45:02.700Z,16.67
2019-04-01T17:48:16.712Z,12.73
2019-04-01T17:51:31.047Z,12.83
2019-04-01T17:54:44.630Z,14.97
2019-04-01T17:57:58.335Z,16.63
2019-04-01T18:01:12.168Z,12.40
2019-04-01T18:04:26.036Z,11.93
2019-04-01T18:07:39.535Z,11.50
2019-04-01T18:10:53.125Z,10.63
2019-04-01T18:14:06.613Z,11.07
2019-04-01T18:17:20.481Z,10.27
2019-04-01T18:20:34.453Z,11.50
2019-04-01T18:23:48.039Z,11.50
2019-04-01T18:27:01.523Z,12.80
2019-04-01T18:30:15.840Z,12.27
2019-04-01T18:33:30.298Z,11.80
2019-04-01T18:36:44.142Z,10.23
2019-04-01T18:39:57.614Z,12.40
2019-04-01T18:43:11.123Z,16.53
2019-04-01T18:46:24.616Z,14.47
2019-04-01T18:49:38.085Z,14.53
2019-04-01T18:52:51.570Z,15.20
2019-04-01T18:56:05.472Z,21.63
2019-04-01T18:59:19.044Z,19.07
2019-04-01T19:02:32.539Z,33.97
2019-04-01T19:05:47.075Z,30.20
2019-04-01T19:09:09.205Z,33.23
2019-04-01T19:12:16.461Z,41.43
2019-04-01T19:15:31.180Z,29.30
2019-04-01T19:18:44.974Z,18.10
2019-04-01T19:21:58.769Z,16.33
2019-04-01T19:25:12.474Z,24.23
2019-04-01T19:28:26.231Z,21.50
2019-04-01T19:31:41.170Z,18.67
2019-04-01T19:34:55.005Z,19.20
2019-04-01T19:38:08.609Z,21.93
2019-04-01T19:41:22.109Z,28.37
2019-04-01T19:44:35.681Z,18.53
2019-04-01T19:47:49.164Z,14.67
2019-04-01T19:51:02.951Z,16.80
2019-04-01T19:54:16.426Z,18.07
2019-04-01T19:57:30.028Z,23.33
2019-04-01T20:00:43.519Z,14.13
2019-04-01T20:03:57.079Z,12.47
2019-04-01T20:07:10.784Z,22.57
2019-04-01T20:13:54.737Z,21.97
2019-04-01T20:17:07.192Z,23.17
2019-04-01T20:20:20.762Z,14.80
2019-04-01T20:23:34.240Z,19.73
2019-04-01T20:26:47.758Z,17.17
2019-04-01T20:30:01.396Z,19.90
2019-04-01T20:33:18.087Z,17.73
2019-04-01T20:36:31.416Z,18.23
2019-04-01T20:39:45.455Z,18.20
2019-04-01T20:42:59.451Z,27.93
2019-04-01T20:46:13.343Z,22.43
2019-04-01T20:49:26.829Z,23.43
2019-04-01T20:52:40.804Z,18.77
2019-04-01T20:55:54.311Z,15.63
2019-04-01T20:59:07.808Z,16.37
2019-04-01T21:02:21.520Z,17.13
2019-04-01T21:05:35.007Z,14.80
2019-04-01T21:08:48.491Z,15.17
2019-04-01T21:12:03.135Z,15.07
2019-04-01T21:15:16.880Z,15.03
2019-04-01T21:18:30.387Z,15.93
2019-04-01T21:21:43.884Z,15.83
2019-04-01T21:24:57.360Z,15.03
2019-04-01T21:28:10.839Z,15.77
2019-04-01T21:31:24.575Z,17.97
2019-04-01T21:34:38.066Z,19.93
2019-04-01T21:37:51.597Z,16.93
2019-04-01T21:41:05.183Z,16.10
2019-04-01T21:44:18.680Z,16.67
2019-04-01T21:47:32.557Z,16.70
2019-04-01T21:50:46.390Z,15.20
2019-04-01T21:54:00.301Z,15.43
2019-04-01T21:57:13.973Z,16.50
2019-04-01T22:00:38.726Z,14.20
2019-04-01T22:03:52.216Z,16.30
2019-04-01T22:07:05.695Z,16.33
2019-04-01T22:10:19.182Z,16.07
2019-04-01T22:13:32.936Z,16.40
2019-04-01T22:16:48.032Z,17.17
2019-04-01T22:20:02.315Z,18.03
2019-04-01T22:23:16.249Z,15.83
2019-04-01T22:26:29.832Z,15.07
2019-04-01T22:29:43.423Z,15.33
2019-04-01T22:32:57.260Z,19.97
2019-04-01T22:36:11.419Z,19.07
2019-04-01T22:39:27.194Z,15.63
2019-04-01T22:42:41.215Z,15.20
2019-04-01T22:45:54.975Z,13.93
2019-04-01T22:49:08.456Z,15.30
2019-04-01T22:52:21.944Z,14.30
2019-04-01T22:55:35.541Z,16.43
2019-04-01T22:58:49.023Z,17.27
2019-04-01T23:02:02.605Z,15.87
2019-04-01T23:05:16.434Z,14.47
2019-04-01T23:08:31.057Z,16.63
2019-04-01T23:11:44.718Z,14.90
2019-04-01T23:14:58.206Z,15.97
2019-04-01T23:18:11.706Z,18.10
2019-04-01T23:21:25.584Z,16.30
2019-04-01T23:24:39.072Z,16.53
2019-04-01T23:27:52.556Z,17.33
2019-04-01T23:31:06.043Z,15.30
2019-04-01T23:34:19.535Z,15.87
2019-04-01T23:37:33.114Z,15.00
2019-04-01T23:40:46.607Z,14.70
2019-04-01T23:44:00.103Z,14.37
2019-04-01T23:47:13.674Z,14.37
2019-04-01T23:50:27.159Z,14.33
2019-04-01T23:53:40.626Z,15.70
2019-04-01T23:56:54.215Z,15.83
